Thayer, MO

7:41 AM CDT on June 02, 2015 (GMT -0500)
Riverbend Rd. | | Change Station
CLOSE
Current Station
Personal Weather Station
Location: Mammoth Spring, AR
Elevation: 538 ft
Nearby Weather Stations

Elev 538 ft 36.48 °N, 91.53 °W | Updated 8 seconds ago

Partly Cloudy
Partly Cloudy
59.2 °F
Feels Like 59.2 °F
N
0.0
Wind Variable Wind from NE
Gusts 0.0 mph

Today
High -- | Low -- °F
--% Chance of Precip.
Yesterday
High -- | Low -- °F
Precip. -- in
5:49 AM 8:19 PM
Full, 100% visible
Pressure 30.13 in
Visibility 5.0 miles
Clouds Scattered Clouds 500 ft
Dew Point 58 °F
Humidity 97%
Rainfall 0.00 in
Snow Depth Not available.
UV 1 out of 12
Pollen 7.70 out of 12
Air Quality Not available.
Flu Activity Sporadic
SPECI KUNO 021200Z AUTO 06003KT 5SM BR SCT005 14/13 A3013 RMK AO2 T01440128 $

More Conditions Fewer Conditions

Pressure 30.13 in
Visibility 5.0 miles
Clouds Scattered Clouds 500 ft
Dew Point 58 °F
Humidity 97%
Rainfall 0.00 in
Snow Depth Not available.
UV 1 out of 12
Pollen 7.70 out of 12
Air Quality Not available.
Flu Activity Sporadic
SPECI KUNO 021200Z AUTO 06003KT 5SM BR SCT005 14/13 A3013 RMK AO2 T01440128 $

More Conditions Fewer Conditions

10-Day Weather Forecast

Almanac

Astronomy

Jun. 02, 2015 Rise Set
Actual Time
Civil Twilight
Nautical Twilight
Astronomical Twilight
Moon
Length of Visible Light
Length of Day
Tomorrow will be .
, % of the Moon is Illuminated

Today's Extremes

State Highs State Lows

Community

WunderPhotos

Upload Photos

1,825,892 photos uploaded!

WunderBlogs® & News

Nearby

Air Quality

  Air Quality AQ Index Pollutant
Not available.

Snow Depth

Station Depth Elevation

Earthquake Activity

City Distance Mag. Time & Date
Minimum magnitude displayed is 2.5.

Coastal Water Temperatures

Place Temperature

Stations

Nearby Weather Stations

Station Location Temp. Windchill Dew Point Humidity Wind Precip. Elev Updated Type